Stillwater, OK

11:15 AM CDT on July 26, 2016 (GMT -0500)
APRSWXNET | | Change Station

Elev 961 ft 36.09 °N, 97.09 °W | Updated 41 minutes ago

Overcast
Overcast
80 °F
Feels Like 84 °F
N
2
Wind Variable Wind from WNW
Gusts 0.0 mph

Today
High -- | Low -- °F
--% Chance of Precip.
Yesterday
High -- | Low -- °F
Precip. -- in
Pressure 29.99 in
Visibility 10.0 miles
Clouds Scattered Clouds 1300 ft
Mostly Cloudy 2100 ft
Overcast 2600 ft
Heat Index 84 °F
Dew Point 74 °F
Humidity 81%
Rainfall in
Snow Depth Not available.
6:31 AM 8:38 PM
Waning Gibbous, 53% visible
METAR KSWO 261553Z 08003KT 10SM SCT013 BKN021 OVC026 27/23 A3003 RMK AO2 SLP156 T02670228
Pressure 29.99 in
Visibility 10.0 miles
Clouds Scattered Clouds 1300 ft
Mostly Cloudy 2100 ft
Overcast 2600 ft
Heat Index 84 °F
Dew Point 74 °F
Humidity 81%
Rainfall in
Snow Depth Not available.
6:31 AM 8:38 PM
Waning Gibbous, 53% visible
METAR KSWO 261553Z 08003KT 10SM SCT013 BKN021 OVC026 27/23 A3003 RMK AO2 SLP156 T02670228

10-Day Weather Forecast

Almanac

Astronomy

Jul. 26, 2016 Rise Set
Actual Time
Civil Twilight
Nautical Twilight
Astronomical Twilight
Moon
Length of Visible Light
Length of Day
Tomorrow will be .
, % of the Moon is Illuminated

Today's Extremes

State Highs State Lows

Community

WunderPhotos

Upload Photos

1,927,625 photos uploaded!

WunderBlog® & News

Nearby

Air Quality

  Air Quality AQ Index Pollutant
Not available.

Snow Depth

Station Depth Elevation

Earthquake Activity

City Distance Mag. Time & Date
Minimum magnitude displayed is 2.5.

Coastal Water Temperatures

Place Temperature

Stations

Nearby Weather Stations

Station Location Temp. Windchill Dew Point Humidity Wind Precip. Elev Updated Type
                   

Watches & Warnings

There are currently no watches in effect.